sensor_id;sensor_type;location;lat;lon;timestamp;pressure;altitude;pressure_sealevel;temperature;humidity
23589;BME280;11972;48.078;11.876;2023-03-14T00:02:37;93964.72;;;8.48;100.00
23589;BME280;11972;48.078;11.876;2023-03-14T00:06:38;93947.13;;;8.22;100.00
23589;BME280;11972;48.078;11.876;2023-03-14T00:10:38;93945.56;;;8.08;100.00
23589;BME280;11972;48.078;11.876;2023-03-14T00:14:39;93938.69;;;8.07;100.00
23589;BME280;11972;48.078;11.876;2023-03-14T00:18:39;93907.94;;;8.01;100.00
23589;BME280;11972;48.078;11.876;2023-03-14T00:22:41;93898.03;;;8.03;100.00
23589;BME280;11972;48.078;11.876;2023-03-14T00:26:41;93899.25;;;8.07;100.00
23589;BME280;11972;48.078;11.876;2023-03-14T00:30:41;93882.59;;;8.26;100.00
23589;BME280;11972;48.078;11.876;2023-03-14T00:34:42;93884.19;;;8.34;100.00
23589;BME280;11972;48.078;11.876;2023-03-14T00:38:44;93908.88;;;8.33;100.00
23589;BME280;11972;48.078;11.876;2023-03-14T00:42:44;93895.13;;;8.44;100.00
23589;BME280;11972;48.078;11.876;2023-03-14T00:46:44;93884.53;;;8.51;100.00
23589;BME280;11972;48.078;11.876;2023-03-14T00:50:45;93898.09;;;8.54;100.00
23589;BME280;11972;48.078;11.876;2023-03-14T00:54:46;93915.72;;;8.54;100.00
23589;BME280;11972;48.078;11.876;2023-03-14T00:58:46;93931.50;;;8.54;100.00
23589;BME280;11972;48.078;11.876;2023-03-14T01:02:46;93939.16;;;8.62;100.00
23589;BME280;11972;48.078;11.876;2023-03-14T01:06:47;93939.50;;;8.72;100.00
23589;BME280;11972;48.078;11.876;2023-03-14T01:10:47;93937.84;;;8.84;100.00
23589;BME280;11972;48.078;11.876;2023-03-14T01:14:47;93941.63;;;9.02;100.00
23589;BME280;11972;48.078;11.876;2023-03-14T01:18:48;93942.13;;;9.17;100.00
23589;BME280;11972;48.078;11.876;2023-03-14T01:22:48;93953.19;;;9.32;100.00
23589;BME280;11972;48.078;11.876;2023-03-14T01:26:49;93940.78;;;9.39;100.00
23589;BME280;11972;48.078;11.876;2023-03-14T01:30:49;93950.53;;;9.39;100.00
23589;BME280;11972;48.078;11.876;2023-03-14T01:34:49;93939.13;;;9.13;100.00
23589;BME280;11972;48.078;11.876;2023-03-14T01:38:49;93927.31;;;8.84;100.00
23589;BME280;11972;48.078;11.876;2023-03-14T01:42:57;93923.38;;;8.62;100.00
23589;BME280;11972;48.078;11.876;2023-03-14T01:46:58;93918.97;;;8.42;100.00
23589;BME280;11972;48.078;11.876;2023-03-14T01:50:59;93918.41;;;8.40;100.00
23589;BME280;11972;48.078;11.876;2023-03-14T01:55:10;93928.13;;;8.40;100.00
23589;BME280;11972;48.078;11.876;2023-03-14T01:59:13;93924.69;;;8.39;100.00
23589;BME280;11972;48.078;11.876;2023-03-14T02:03:16;93946.53;;;8.40;100.00
23589;BME280;11972;48.078;11.876;2023-03-14T02:07:22;93948.72;;;8.43;100.00
23589;BME280;11972;48.078;11.876;2023-03-14T02:11:26;93937.63;;;8.41;100.00
23589;BME280;11972;48.078;11.876;2023-03-14T02:15:28;93943.69;;;8.41;100.00
23589;BME280;11972;48.078;11.876;2023-03-14T02:19:43;93977.66;;;8.43;100.00
23589;BME280;11972;48.078;11.876;2023-03-14T02:23:57;93989.63;;;8.45;100.00
23589;BME280;11972;48.078;11.876;2023-03-14T02:27:59;93985.38;;;8.44;100.00
23589;BME280;11972;48.078;11.876;2023-03-14T02:32:00;93982.13;;;8.42;100.00
23589;BME280;11972;48.078;11.876;2023-03-14T02:36:04;93986.00;;;8.40;100.00
23589;BME280;11972;48.078;11.876;2023-03-14T02:40:06;93973.63;;;8.34;100.00
23589;BME280;11972;48.078;11.876;2023-03-14T02:44:07;93957.88;;;8.27;100.00
23589;BME280;11972;48.078;11.876;2023-03-14T02:48:15;93963.94;;;8.14;100.00
23589;BME280;11972;48.078;11.876;2023-03-14T02:52:16;93950.00;;;8.01;100.00
23589;BME280;11972;48.078;11.876;2023-03-14T02:56:16;93915.47;;;7.90;100.00
23589;BME280;11972;48.078;11.876;2023-03-14T03:00:17;93900.72;;;7.83;100.00
23589;BME280;11972;48.078;11.876;2023-03-14T03:04:17;93881.91;;;7.79;100.00
23589;BME280;11972;48.078;11.876;2023-03-14T03:08:19;93885.56;;;7.78;100.00
23589;BME280;11972;48.078;11.876;2023-03-14T03:12:20;93873.03;;;7.74;100.00
23589;BME280;11972;48.078;11.876;2023-03-14T03:16:20;93874.25;;;7.71;100.00
23589;BME280;11972;48.078;11.876;2023-03-14T03:20:20;93865.75;;;7.62;100.00
23589;BME280;11972;48.078;11.876;2023-03-14T03:24:21;93858.50;;;7.58;100.00
23589;BME280;11972;48.078;11.876;2023-03-14T03:28:21;93830.59;;;7.57;100.00
23589;BME280;11972;48.078;11.876;2023-03-14T03:32:22;93803.94;;;7.53;100.00
23589;BME280;11972;48.078;11.876;2023-03-14T03:36:23;93801.91;;;7.55;100.00
23589;BME280;11972;48.078;11.876;2023-03-14T03:40:24;93810.41;;;7.51;100.00
23589;BME280;11972;48.078;11.876;2023-03-14T03:44:24;93794.03;;;7.49;100.00
23589;BME280;11972;48.078;11.876;2023-03-14T03:48:25;93797.09;;;7.45;100.00
23589;BME280;11972;48.078;11.876;2023-03-14T03:52:25;93817.47;;;7.43;100.00
23589;BME280;11972;48.078;11.876;2023-03-14T03:56:25;93822.94;;;7.42;100.00
23589;BME280;11972;48.078;11.876;2023-03-14T04:00:26;93820.94;;;7.37;100.00
23589;BME280;11972;48.078;11.876;2023-03-14T04:04:26;93840.13;;;7.31;100.00
23589;BME280;11972;48.078;11.876;2023-03-14T04:08:27;93848.00;;;7.25;100.00
23589;BME280;11972;48.078;11.876;2023-03-14T04:12:27;93848.59;;;7.20;100.00
23589;BME280;11972;48.078;11.876;2023-03-14T04:16:28;93844.78;;;7.16;100.00
23589;BME280;11972;48.078;11.876;2023-03-14T04:20:29;93837.50;;;7.11;100.00
23589;BME280;11972;48.078;11.876;2023-03-14T04:24:29;93833.47;;;7.09;100.00
23589;BME280;11972;48.078;11.876;2023-03-14T04:28:30;93819.94;;;7.05;100.00
23589;BME280;11972;48.078;11.876;2023-03-14T04:32:30;93808.00;;;7.03;100.00
23589;BME280;11972;48.078;11.876;2023-03-14T04:36:30;93791.03;;;6.99;100.00
23589;BME280;11972;48.078;11.876;2023-03-14T04:40:31;93787.63;;;6.98;100.00
23589;BME280;11972;48.078;11.876;2023-03-14T04:44:31;93780.34;;;6.93;100.00
23589;BME280;11972;48.078;11.876;2023-03-14T04:48:31;93784.78;;;6.86;100.00
23589;BME280;11972;48.078;11.876;2023-03-14T04:52:32;93794.28;;;6.81;100.00
23589;BME280;11972;48.078;11.876;2023-03-14T04:56:32;93790.22;;;6.78;100.00
23589;BME280;11972;48.078;11.876;2023-03-14T05:00:32;93790.66;;;6.75;100.00
23589;BME280;11972;48.078;11.876;2023-03-14T05:04:33;93783.78;;;6.74;100.00
23589;BME280;11972;48.078;11.876;2023-03-14T05:08:33;93768.63;;;6.69;100.00
23589;BME280;11972;48.078;11.876;2023-03-14T05:12:34;93770.25;;;6.64;100.00
23589;BME280;11972;48.078;11.876;2023-03-14T05:16:34;93763.59;;;6.61;100.00
23589;BME280;11972;48.078;11.876;2023-03-14T05:20:34;93770.06;;;6.59;100.00
23589;BME280;11972;48.078;11.876;2023-03-14T05:24:38;93755.94;;;6.60;100.00
23589;BME280;11972;48.078;11.876;2023-03-14T05:28:38;93751.06;;;6.57;100.00
23589;BME280;11972;48.078;11.876;2023-03-14T05:32:38;93753.91;;;6.55;100.00
23589;BME280;11972;48.078;11.876;2023-03-14T05:36:39;93758.34;;;6.55;100.00
23589;BME280;11972;48.078;11.876;2023-03-14T05:40:39;93767.63;;;6.51;100.00
23589;BME280;11972;48.078;11.876;2023-03-14T05:44:39;93765.19;;;6.49;100.00
23589;BME280;11972;48.078;11.876;2023-03-14T05:48:40;93766.63;;;6.52;100.00
23589;BME280;11972;48.078;11.876;2023-03-14T05:52:40;93757.94;;;6.51;100.00
23589;BME280;11972;48.078;11.876;2023-03-14T05:56:40;93749.06;;;6.52;100.00
23589;BME280;11972;48.078;11.876;2023-03-14T06:00:41;93756.72;;;6.54;100.00
23589;BME280;11972;48.078;11.876;2023-03-14T06:04:41;93751.47;;;6.54;100.00
23589;BME280;11972;48.078;11.876;2023-03-14T06:08:41;93748.44;;;6.57;100.00
23589;BME280;11972;48.078;11.876;2023-03-14T06:12:42;93740.19;;;6.60;100.00
23589;BME280;11972;48.078;11.876;2023-03-14T06:16:42;93751.09;;;6.63;100.00
23589;BME280;11972;48.078;11.876;2023-03-14T06:20:42;93749.06;;;6.65;100.00
23589;BME280;11972;48.078;11.876;2023-03-14T06:24:43;93754.72;;;6.69;100.00
23589;BME280;11972;48.078;11.876;2023-03-14T06:28:43;93747.47;;;6.71;100.00
23589;BME280;11972;48.078;11.876;2023-03-14T06:32:43;93742.59;;;6.81;100.00
23589;BME280;11972;48.078;11.876;2023-03-14T06:36:44;93735.34;;;6.90;100.00
23589;BME280;11972;48.078;11.876;2023-03-14T06:40:44;93727.84;;;7.07;100.00
23589;BME280;11972;48.078;11.876;2023-03-14T06:44:44;93713.06;;;7.19;100.00
23589;BME280;11972;48.078;11.876;2023-03-14T06:48:45;93720.34;;;7.30;100.00
23589;BME280;11972;48.078;11.876;2023-03-14T06:52:45;93722.09;;;7.50;100.00
23589;BME280;11972;48.078;11.876;2023-03-14T06:56:47;93727.91;;;7.65;100.00
23589;BME280;11972;48.078;11.876;2023-03-14T07:00:48;93741.00;;;7.78;100.00
23589;BME280;11972;48.078;11.876;2023-03-14T07:04:48;93740.34;;;7.89;100.00
23589;BME280;11972;48.078;11.876;2023-03-14T07:08:48;93742.34;;;7.94;100.00
23589;BME280;11972;48.078;11.876;2023-03-14T07:12:49;93741.97;;;7.90;100.00
23589;BME280;11972;48.078;11.876;2023-03-14T07:16:49;93739.72;;;7.94;100.00
23589;BME280;11972;48.078;11.876;2023-03-14T07:20:50;93740.72;;;8.00;100.00
23589;BME280;11972;48.078;11.876;2023-03-14T07:24:50;93730.53;;;8.10;100.00
23589;BME280;11972;48.078;11.876;2023-03-14T07:28:50;93742.63;;;8.17;100.00
23589;BME280;11972;48.078;11.876;2023-03-14T07:32:51;93741.41;;;8.20;100.00
23589;BME280;11972;48.078;11.876;2023-03-14T07:36:51;93741.81;;;8.17;100.00
23589;BME280;11972;48.078;11.876;2023-03-14T07:40:58;93737.94;;;8.26;100.00
23589;BME280;11972;48.078;11.876;2023-03-14T07:44:59;93739.69;;;8.39;100.00
23589;BME280;11972;48.078;11.876;2023-03-14T07:48:59;93736.94;;;8.59;100.00
23589;BME280;11972;48.078;11.876;2023-03-14T07:52:59;93732.75;;;8.76;100.00
23589;BME280;11972;48.078;11.876;2023-03-14T07:57:00;93733.06;;;8.93;100.00
23589;BME280;11972;48.078;11.876;2023-03-14T08:01:01;93733.50;;;9.08;100.00
23589;BME280;11972;48.078;11.876;2023-03-14T08:05:03;93728.88;;;9.29;100.00
23589;BME280;11972;48.078;11.876;2023-03-14T08:09:04;93723.63;;;9.47;100.00
23589;BME280;11972;48.078;11.876;2023-03-14T08:13:04;93725.47;;;9.65;100.00
23589;BME280;11972;48.078;11.876;2023-03-14T08:17:04;93712.72;;;9.80;100.00
23589;BME280;11972;48.078;11.876;2023-03-14T08:21:06;93724.25;;;9.98;100.00
23589;BME280;11972;48.078;11.876;2023-03-14T08:25:07;93728.06;;;10.02;100.00
23589;BME280;11972;48.078;11.876;2023-03-14T08:29:07;93734.38;;;10.01;100.00
23589;BME280;11972;48.078;11.876;2023-03-14T08:33:08;93730.84;;;10.07;100.00
23589;BME280;11972;48.078;11.876;2023-03-14T08:37:08;93741.75;;;10.10;100.00
23589;BME280;11972;48.078;11.876;2023-03-14T08:41:09;93737.56;;;10.21;100.00
23589;BME280;11972;48.078;11.876;2023-03-14T08:45:12;93745.91;;;10.36;100.00
23589;BME280;11972;48.078;11.876;2023-03-14T08:49:13;93748.06;;;10.58;100.00
23589;BME280;11972;48.078;11.876;2023-03-14T08:53:14;93763.09;;;10.69;100.00
23589;BME280;11972;48.078;11.876;2023-03-14T08:57:15;93762.78;;;10.77;100.00
23589;BME280;11972;48.078;11.876;2023-03-14T09:01:16;93771.50;;;10.78;100.00
23589;BME280;11972;48.078;11.876;2023-03-14T09:05:16;93767.38;;;10.70;100.00
23589;BME280;11972;48.078;11.876;2023-03-14T09:09:16;93769.50;;;10.61;100.00
23589;BME280;11972;48.078;11.876;2023-03-14T09:13:17;93774.16;;;10.48;100.00
23589;BME280;11972;48.078;11.876;2023-03-14T09:17:17;93771.59;;;10.29;100.00
23589;BME280;11972;48.078;11.876;2023-03-14T09:21:17;93773.69;;;10.21;100.00
23589;BME280;11972;48.078;11.876;2023-03-14T09:25:18;93769.06;;;10.16;100.00
23589;BME280;11972;48.078;11.876;2023-03-14T09:29:18;93772.53;;;10.16;100.00
23589;BME280;11972;48.078;11.876;2023-03-14T09:33:18;93764.38;;;10.18;100.00
23589;BME280;11972;48.078;11.876;2023-03-14T09:37:19;93769.06;;;10.16;100.00
23589;BME280;11972;48.078;11.876;2023-03-14T09:41:24;93761.44;;;10.08;100.00
23589;BME280;11972;48.078;11.876;2023-03-14T09:45:33;93764.38;;;10.00;100.00
23589;BME280;11972;48.078;11.876;2023-03-14T09:49:44;93760.88;;;9.87;100.00
23589;BME280;11972;48.078;11.876;2023-03-14T09:53:47;93766.63;;;9.84;100.00
23589;BME280;11972;48.078;11.876;2023-03-14T09:57:50;93750.44;;;9.81;100.00
23589;BME280;11972;48.078;11.876;2023-03-14T10:01:58;93736.44;;;9.80;100.00
23589;BME280;11972;48.078;11.876;2023-03-14T10:06:00;93733.22;;;9.78;100.00
23589;BME280;11972;48.078;11.876;2023-03-14T10:10:00;93734.31;;;9.89;100.00
23589;BME280;11972;48.078;11.876;2023-03-14T10:14:08;93726.47;;;10.01;100.00
23589;BME280;11972;48.078;11.876;2023-03-14T10:18:12;93715.28;;;10.17;100.00
23589;BME280;11972;48.078;11.876;2023-03-14T10:22:14;93723.63;;;10.32;100.00
23589;BME280;11972;48.078;11.876;2023-03-14T10:26:17;93725.31;;;10.57;100.00
23589;BME280;11972;48.078;11.876;2023-03-14T10:30:44;93733.56;;;10.90;100.00
23589;BME280;11972;48.078;11.876;2023-03-14T10:35:05;93732.06;;;11.18;100.00
23589;BME280;11972;48.078;11.876;2023-03-14T10:39:29;93726.09;;;11.34;100.00
23589;BME280;11972;48.078;11.876;2023-03-14T10:43:32;93725.59;;;11.84;100.00
23589;BME280;11972;48.078;11.876;2023-03-14T10:47:34;93718.13;;;12.50;100.00
23589;BME280;11972;48.078;11.876;2023-03-14T10:51:34;93719.16;;;13.28;100.00
23589;BME280;11972;48.078;11.876;2023-03-14T10:55:43;93711.19;;;14.06;100.00
23589;BME280;11972;48.078;11.876;2023-03-14T10:59:45;93706.94;;;14.49;100.00
23589;BME280;11972;48.078;11.876;2023-03-14T11:03:54;93705.34;;;15.12;100.00
23589;BME280;11972;48.078;11.876;2023-03-14T11:08:01;93710.69;;;15.54;100.00
23589;BME280;11972;48.078;11.876;2023-03-14T11:12:28;93699.28;;;15.59;100.00
23589;BME280;11972;48.078;11.876;2023-03-14T11:16:54;93703.75;;;15.48;100.00
23589;BME280;11972;48.078;11.876;2023-03-14T11:21:02;93689.84;;;14.99;100.00
23589;BME280;11972;48.078;11.876;2023-03-14T11:25:07;93694.38;;;14.71;100.00
23589;BME280;11972;48.078;11.876;2023-03-14T11:29:25;93692.09;;;14.53;100.00
23589;BME280;11972;48.078;11.876;2023-03-14T11:33:37;93681.00;;;14.39;100.00
23589;BME280;11972;48.078;11.876;2023-03-14T11:37:46;93687.28;;;14.06;100.00
23589;BME280;11972;48.078;11.876;2023-03-14T11:41:51;93696.41;;;14.15;100.00
23589;BME280;11972;48.078;11.876;2023-03-14T11:45:54;93686.53;;;14.32;100.00
23589;BME280;11972;48.078;11.876;2023-03-14T11:50:22;93683.94;;;14.37;100.00
23589;BME280;11972;48.078;11.876;2023-03-14T11:54:43;93669.75;;;14.49;100.00
23589;BME280;11972;48.078;11.876;2023-03-14T11:58:55;93661.78;;;14.49;100.00
23589;BME280;11972;48.078;11.876;2023-03-14T12:07:34;93654.69;;;14.59;100.00
23589;BME280;11972;48.078;11.876;2023-03-14T12:11:43;93655.03;;;14.19;100.00
23589;BME280;11972;48.078;11.876;2023-03-14T12:15:57;93669.75;;;13.61;100.00
23589;BME280;11972;48.078;11.876;2023-03-14T12:20:20;93677.88;;;13.32;100.00
23589;BME280;11972;48.078;11.876;2023-03-14T12:24:30;93652.56;;;13.42;100.00
23589;BME280;11972;48.078;11.876;2023-03-14T12:28:31;93663.91;;;13.81;100.00
23589;BME280;11972;48.078;11.876;2023-03-14T12:32:32;93658.97;;;13.89;100.00
23589;BME280;11972;48.078;11.876;2023-03-14T12:49:13;93640.84;;;13.81;100.00
23589;BME280;11972;48.078;11.876;2023-03-14T12:57:25;93653.94;;;13.66;100.00
23589;BME280;11972;48.078;11.876;2023-03-14T13:01:28;93661.28;;;13.59;100.00
23589;BME280;11972;48.078;11.876;2023-03-14T13:05:29;93681.56;;;12.64;100.00
23589;BME280;11972;48.078;11.876;2023-03-14T13:13:30;93677.94;;;13.04;100.00
23589;BME280;11972;48.078;11.876;2023-03-14T13:17:33;93662.94;;;13.26;100.00
23589;BME280;11972;48.078;11.876;2023-03-14T13:21:35;93659.56;;;13.31;100.00
23589;BME280;11972;48.078;11.876;2023-03-14T13:25:37;93660.09;;;13.16;100.00
23589;BME280;11972;48.078;11.876;2023-03-14T13:29:37;93699.41;;;12.85;100.00
23589;BME280;11972;48.078;11.876;2023-03-14T13:33:40;93674.97;;;12.66;100.00
23589;BME280;11972;48.078;11.876;2023-03-14T13:37:40;93693.88;;;12.41;100.00
23589;BME280;11972;48.078;11.876;2023-03-14T13:41:41;93697.03;;;12.10;100.00
23589;BME280;11972;48.078;11.876;2023-03-14T13:46:12;93713.84;;;11.80;100.00
23589;BME280;11972;48.078;11.876;2023-03-14T13:50:17;93716.41;;;11.75;100.00
23589;BME280;11972;48.078;11.876;2023-03-14T13:54:20;93747.56;;;11.85;100.00
23589;BME280;11972;48.078;11.876;2023-03-14T13:58:29;93732.84;;;11.77;100.00
23589;BME280;11972;48.078;11.876;2023-03-14T14:02:31;93789.28;;;11.48;100.00
23589;BME280;11972;48.078;11.876;2023-03-14T14:06:38;93774.34;;;11.18;100.00
23589;BME280;11972;48.078;11.876;2023-03-14T14:10:47;93773.53;;;10.64;100.00
23589;BME280;11972;48.078;11.876;2023-03-14T14:18:52;93827.69;;;9.63;100.00
23589;BME280;11972;48.078;11.876;2023-03-14T14:22:54;93822.63;;;8.86;100.00
23589;BME280;11972;48.078;11.876;2023-03-14T14:26:59;93845.16;;;8.37;100.00
23589;BME280;11972;48.078;11.876;2023-03-14T14:35:07;93887.09;;;8.19;100.00
23589;BME280;11972;48.078;11.876;2023-03-14T14:39:19;93889.94;;;7.97;100.00
23589;BME280;11972;48.078;11.876;2023-03-14T14:43:27;93890.41;;;7.68;100.00
23589;BME280;11972;48.078;11.876;2023-03-14T14:47:28;93903.38;;;7.50;100.00
23589;BME280;11972;48.078;11.876;2023-03-14T14:51:38;93928.81;;;7.36;100.00
23589;BME280;11972;48.078;11.876;2023-03-14T14:55:40;93938.09;;;7.12;100.00
23589;BME280;11972;48.078;11.876;2023-03-14T14:59:42;93954.22;;;6.95;100.00
23589;BME280;11972;48.078;11.876;2023-03-14T15:03:48;93962.66;;;6.84;100.00
23589;BME280;11972;48.078;11.876;2023-03-14T15:07:50;93965.06;;;6.79;100.00
23589;BME280;11972;48.078;11.876;2023-03-14T15:11:50;93974.94;;;6.77;100.00
23589;BME280;11972;48.078;11.876;2023-03-14T15:15:51;93984.19;;;6.73;100.00
23589;BME280;11972;48.078;11.876;2023-03-14T15:19:55;93981.34;;;6.68;100.00
23589;BME280;11972;48.078;11.876;2023-03-14T15:23:58;93988.00;;;6.64;100.00
23589;BME280;11972;48.078;11.876;2023-03-14T15:27:58;93998.09;;;6.67;100.00
23589;BME280;11972;48.078;11.876;2023-03-14T15:31:58;94015.50;;;6.81;100.00
23589;BME280;11972;48.078;11.876;2023-03-14T15:35:59;94012.69;;;6.76;100.00
23589;BME280;11972;48.078;11.876;2023-03-14T15:40:01;94019.09;;;6.74;100.00
23589;BME280;11972;48.078;11.876;2023-03-14T15:44:04;94040.88;;;6.67;100.00
23589;BME280;11972;48.078;11.876;2023-03-14T15:48:05;94021.91;;;6.65;100.00
23589;BME280;11972;48.078;11.876;2023-03-14T15:52:05;94092.31;;;6.62;100.00
23589;BME280;11972;48.078;11.876;2023-03-14T15:56:11;94043.47;;;6.61;100.00
23589;BME280;11972;48.078;11.876;2023-03-14T16:00:14;94087.34;;;6.74;100.00
23589;BME280;11972;48.078;11.876;2023-03-14T16:04:15;94089.06;;;6.94;100.00
23589;BME280;11972;48.078;11.876;2023-03-14T16:08:16;94104.91;;;7.14;100.00
23589;BME280;11972;48.078;11.876;2023-03-14T16:12:16;94138.75;;;6.96;100.00
23589;BME280;11972;48.078;11.876;2023-03-14T16:16:17;94149.72;;;6.01;100.00
23589;BME280;11972;48.078;11.876;2023-03-14T16:20:17;94209.75;;;5.44;100.00
23589;BME280;11972;48.078;11.876;2023-03-14T16:24:19;94170.31;;;5.16;100.00
23589;BME280;11972;48.078;11.876;2023-03-14T16:28:20;94192.16;;;5.09;100.00
23589;BME280;11972;48.078;11.876;2023-03-14T16:32:21;94175.66;;;5.08;100.00
23589;BME280;11972;48.078;11.876;2023-03-14T16:36:21;94199.75;;;5.18;100.00
23589;BME280;11972;48.078;11.876;2023-03-14T16:40:21;94215.44;;;5.33;100.00
23589;BME280;11972;48.078;11.876;2023-03-14T16:44:22;94214.34;;;5.42;100.00
23589;BME280;11972;48.078;11.876;2023-03-14T16:48:22;94240.28;;;5.52;100.00
23589;BME280;11972;48.078;11.876;2023-03-14T16:52:24;94264.91;;;5.58;100.00
23589;BME280;11972;48.078;11.876;2023-03-14T16:56:24;94263.56;;;5.47;100.00
23589;BME280;11972;48.078;11.876;2023-03-14T17:00:24;94261.41;;;5.36;100.00
23589;BME280;11972;48.078;11.876;2023-03-14T17:04:25;94266.06;;;5.55;100.00
23589;BME280;11972;48.078;11.876;2023-03-14T17:08:25;94304.00;;;5.59;100.00
23589;BME280;11972;48.078;11.876;2023-03-14T17:12:25;94274.69;;;5.64;100.00
23589;BME280;11972;48.078;11.876;2023-03-14T17:16:26;94300.22;;;5.62;100.00
23589;BME280;11972;48.078;11.876;2023-03-14T17:20:26;94328.03;;;5.63;100.00
23589;BME280;11972;48.078;11.876;2023-03-14T17:24:27;94365.53;;;5.63;100.00
23589;BME280;11972;48.078;11.876;2023-03-14T17:28:27;94343.31;;;5.74;100.00
23589;BME280;11972;48.078;11.876;2023-03-14T17:32:27;94355.31;;;5.83;100.00
23589;BME280;11972;48.078;11.876;2023-03-14T17:36:28;94367.06;;;5.87;100.00
23589;BME280;11972;48.078;11.876;2023-03-14T17:40:30;94393.00;;;5.82;100.00
23589;BME280;11972;48.078;11.876;2023-03-14T17:44:31;94402.56;;;5.75;100.00
23589;BME280;11972;48.078;11.876;2023-03-14T17:48:31;94399.84;;;5.54;100.00
23589;BME280;11972;48.078;11.876;2023-03-14T17:52:32;94420.19;;;5.29;100.00
23589;BME280;11972;48.078;11.876;2023-03-14T17:56:34;94391.34;;;5.14;100.00
23589;BME280;11972;48.078;11.876;2023-03-14T18:00:34;94397.72;;;4.96;100.00
23589;BME280;11972;48.078;11.876;2023-03-14T18:04:35;94425.59;;;4.81;100.00
23589;BME280;11972;48.078;11.876;2023-03-14T18:08:37;94410.91;;;4.80;100.00
23589;BME280;11972;48.078;11.876;2023-03-14T18:12:37;94422.38;;;4.79;100.00
23589;BME280;11972;48.078;11.876;2023-03-14T18:16:37;94426.66;;;4.72;100.00
23589;BME280;11972;48.078;11.876;2023-03-14T18:20:38;94439.31;;;4.60;100.00
23589;BME280;11972;48.078;11.876;2023-03-14T18:24:38;94447.06;;;4.45;100.00
23589;BME280;11972;48.078;11.876;2023-03-14T18:28:38;94445.81;;;4.33;100.00
23589;BME280;11972;48.078;11.876;2023-03-14T18:32:40;94448.47;;;4.25;100.00
23589;BME280;11972;48.078;11.876;2023-03-14T18:36:40;94459.13;;;4.07;100.00
23589;BME280;11972;48.078;11.876;2023-03-14T18:40:40;94468.16;;;3.96;100.00
23589;BME280;11972;48.078;11.876;2023-03-14T18:44:41;94461.00;;;3.82;100.00
23589;BME280;11972;48.078;11.876;2023-03-14T18:48:41;94470.00;;;3.71;100.00
23589;BME280;11972;48.078;11.876;2023-03-14T18:52:41;94471.66;;;3.56;100.00
23589;BME280;11972;48.078;11.876;2023-03-14T18:56:42;94466.63;;;3.30;100.00
23589;BME280;11972;48.078;11.876;2023-03-14T19:00:42;94483.25;;;3.13;100.00
23589;BME280;11972;48.078;11.876;2023-03-14T19:04:42;94482.91;;;2.99;100.00
23589;BME280;11972;48.078;11.876;2023-03-14T19:08:43;94483.88;;;2.98;100.00
23589;BME280;11972;48.078;11.876;2023-03-14T19:12:43;94482.75;;;3.01;100.00
23589;BME280;11972;48.078;11.876;2023-03-14T19:16:44;94478.34;;;3.10;100.00
23589;BME280;11972;48.078;11.876;2023-03-14T19:21:03;94489.13;;;3.15;100.00
23589;BME280;11972;48.078;11.876;2023-03-14T19:25:05;94492.72;;;3.14;100.00
23589;BME280;11972;48.078;11.876;2023-03-14T19:29:05;94507.06;;;3.18;100.00
23589;BME280;11972;48.078;11.876;2023-03-14T19:33:10;94516.53;;;3.27;100.00
23589;BME280;11972;48.078;11.876;2023-03-14T19:37:10;94520.63;;;3.38;100.00
23589;BME280;11972;48.078;11.876;2023-03-14T19:41:11;94519.78;;;3.54;100.00
23589;BME280;11972;48.078;11.876;2023-03-14T19:45:11;94519.31;;;3.66;100.00
23589;BME280;11972;48.078;11.876;2023-03-14T19:49:11;94506.25;;;3.75;100.00
23589;BME280;11972;48.078;11.876;2023-03-14T19:53:12;94525.16;;;3.77;100.00
23589;BME280;11972;48.078;11.876;2023-03-14T19:57:12;94528.59;;;3.85;100.00
23589;BME280;11972;48.078;11.876;2023-03-14T20:01:12;94531.34;;;4.00;100.00
23589;BME280;11972;48.078;11.876;2023-03-14T20:05:13;94528.19;;;4.21;100.00
23589;BME280;11972;48.078;11.876;2023-03-14T20:09:14;94535.34;;;4.35;100.00
23589;BME280;11972;48.078;11.876;2023-03-14T20:13:14;94538.09;;;4.50;100.00
23589;BME280;11972;48.078;11.876;2023-03-14T20:17:14;94539.69;;;4.59;100.00
23589;BME280;11972;48.078;11.876;2023-03-14T20:21:15;94544.06;;;4.67;100.00
23589;BME280;11972;48.078;11.876;2023-03-14T20:25:16;94553.50;;;4.76;100.00
23589;BME280;11972;48.078;11.876;2023-03-14T20:29:23;94556.09;;;4.84;100.00
23589;BME280;11972;48.078;11.876;2023-03-14T20:33:23;94548.53;;;4.89;100.00
23589;BME280;11972;48.078;11.876;2023-03-14T20:37:23;94550.28;;;4.97;100.00
23589;BME280;11972;48.078;11.876;2023-03-14T20:41:24;94548.28;;;5.07;100.00
23589;BME280;11972;48.078;11.876;2023-03-14T20:45:24;94543.81;;;5.16;100.00
23589;BME280;11972;48.078;11.876;2023-03-14T20:49:25;94542.69;;;5.18;100.00
23589;BME280;11972;48.078;11.876;2023-03-14T20:53:26;94542.69;;;5.18;100.00
23589;BME280;11972;48.078;11.876;2023-03-14T20:57:26;94540.69;;;5.20;100.00
23589;BME280;11972;48.078;11.876;2023-03-14T21:01:27;94562.38;;;5.29;100.00
23589;BME280;11972;48.078;11.876;2023-03-14T21:05:27;94596.19;;;5.16;100.00
23589;BME280;11972;48.078;11.876;2023-03-14T21:09:28;94604.16;;;4.19;100.00
23589;BME280;11972;48.078;11.876;2023-03-14T21:13:29;94581.31;;;3.64;100.00
23589;BME280;11972;48.078;11.876;2023-03-14T21:17:30;94604.97;;;3.38;100.00
23589;BME280;11972;48.078;11.876;2023-03-14T21:21:30;94604.63;;;3.25;100.00
23589;BME280;11972;48.078;11.876;2023-03-14T21:25:31;94606.34;;;3.16;100.00
23589;BME280;11972;48.078;11.876;2023-03-14T21:29:32;94611.22;;;3.03;100.00
23589;BME280;11972;48.078;11.876;2023-03-14T21:33:36;94622.41;;;2.87;100.00
23589;BME280;11972;48.078;11.876;2023-03-14T21:37:37;94632.81;;;2.79;100.00